ADDS METAR Data INFO
IDs: Format: Raw Decoded Include TAF

Data at: 1523 UTC 18 Jun 2018

PAPB 181453Z AUTO 32010G19KT 10SM OVC009 04/03 A2958 RMK AO2 CIG 006V012 SLP005 T00390033 55000 TSNO
PAPB 181353Z AUTO 34014G21KT 10SM OVC009 04/03 A2958 RMK AO2 SLP003 T00390033 TSNO
PAPB 181253Z AUTO 34016G21KT 10SM OVC009 04/03 A2958 RMK AO2 SLP004 T00390033 TSNO
PAPB 181153Z AUTO 34014G24KT 10SM OVC008 04/03 A2958 RMK AO2 PK WND 35030/1100 SLP005 70001 T00390028 10056 20039 55000 TSNO
PAPB 181053Z AUTO 35020G31KT 10SM OVC007 04/03 A2957 RMK AO2 PK WND 35032/1033 SLP002 T00390033 TSNO
PAPB 180953Z AUTO 35023KT 9SM OVC005 04/03 A2957 RMK AO2 PK WND 35031/0912 SLP002 T00390033 TSNO
PAPB 180853Z AUTO 35020G29KT 9SM OVC005 04/04 A2958 RMK AO2 PK WND 35031/0825 SLP005 T00440039 400670039 51002 TSNO
PAPB 180801Z AUTO 34023KT 3SM BR OVC005 04/04 A2958 RMK AO2 PK WND 34029/0756 T00440044 TSNO
PAPB 180753Z AUTO 34023G29KT 2 1/2SM BR OVC004 04/04 A2958 RMK AO2 PK WND 34029/0709 SLP005 T00440044 TSNO
PAPB 180701Z AUTO 34020G27KT 3SM BR OVC004 05/05 A2958 RMK AO2 PK WND 35028/0650 T00500050 TSNO
PAPB 180649Z AUTO 35024KT 1 1/2SM BR OVC004 05/05 A2958 RMK AO2 PK WND 35029/0649 SLP003 T00500050 TSNO
PAPB 180648Z AUTO 35024KT 1 1/2SM BR OVC004 05/05 A2957 RMK AO2 PK WND 35029/0648 TSNO
PAPB 180642Z AUTO 35018G27KT 2SM BR OVC005 05/05 A2958 RMK AO2 PK WND 35028/0615 T00500050 TSNO
PAPB 180635Z AUTO 35021G27KT 3SM BR OVC004 05/05 A2958 RMK AO2 PK WND 35028/0615 T00500050 TSNO
PAPB 180603Z AUTO 35022G27KT 2 1/2SM BR OVC004 06/05 A2957 RMK AO2 PK WND 34027/0603 T00560050 TSNO
PAPB 180553Z AUTO 35024G30KT 3SM BR OVC004 06/05 A2957 RMK AO2 PK WND 34030/0458 SLP003 T00560050 10067 20056 50000 TSNO
PAPB 180542Z AUTO 35021G29KT 2 1/2SM BR OVC004 06/05 A2957 RMK AO2 PK WND 34030/0458 T00560050 TSNO
PAPB 180529Z AUTO 35021G26KT 1 3/4SM BR OVC004 06/06 A2958 RMK AO2 PK WND 34030/0458 T00560056 TSNO
PAPB 180519Z AUTO 35021G29KT 2SM BR OVC004 06/05 A2957 RMK AO2 PK WND 34030/0458 T00560050 TSNO
PAPB 180453Z AUTO 36017G30KT 2SM BR OVC005 06/06 A2958 RMK AO2 PK WND 36031/0423 CIG 003V008 SLP004 T00560056 TSNO
PAPB 180443Z AUTO 36019G28KT 2SM BR OVC005 06/06 A2957 RMK AO2 PK WND 36031/0423 T00610056 TSNO
PAPB 180438Z AUTO 35020G28KT 1 3/4SM BR OVC004 06/06 A2957 RMK AO2 PK WND 36031/0423 T00610056 TSNO
PAPB 180421Z AUTO 35022G30KT 2SM BR OVC004 06/06 A2957 RMK AO2 PK WND 35031/0411 T00610056 TSNO
PAPB 180403Z AUTO 35019G28KT 2SM BR OVC005 06/06 A2957 RMK AO2 PK WND 36028/0400 T00610056 TSNO
PAPB 180353Z AUTO 35020G33KT 3SM BR BKN005 OVC015 06/06 A2957 RMK AO2 PK WND 35033/0344 SLP002 T00610056 TSNO
PAPB 180253Z AUTO 35022G30KT 8SM OVC006 07/06 A2957 RMK AO2 PK WND 02031/0220 SLP002 T00670056 50003 TSNO
PAPB 180153Z AUTO 36021G30KT 6SM BR OVC006 07/06 A2958 RMK AO2 PK WND 01030/0147 SLP004 T00670056 TSNO
PAPB 180053Z AUTO 01024G30KT 6SM BR OVC005 07/06 A2957 RMK AO2 PK WND 01032/2355 SLP002 T00670056 TSNO
PAPB 172353Z AUTO 01024G32KT 6SM BR OVC005 07/06 A2956 RMK AO2 PK WND 36035/2329 SLP999 T00670056 10067 20061 50001 TSNO
PAPB 172313Z AUTO 36022G30KT 6SM BR OVC005 07/06 A2956 RMK AO2 PK WND 02033/2302 T00670061 TSNO
PAPB 172253Z AUTO 36022G30KT 5SM BR OVC004 06/06 A2957 RMK AO2 PK WND 01036/2235 SLP000 T00610061 TSNO
PAPB 172153Z AUTO 35018G32KT 7SM OVC004 06/06 A2957 RMK AO2 PK WND 02033/2117 SLP000 T00610056 TSNO
PAPB 172150Z AUTO 36023G32KT 7SM OVC004 06/06 A2956 RMK AO2 PK WND 02033/2117 TSNO
PAPB 172135Z AUTO 01019G32KT 4SM BR OVC003 06/06 A2956 RMK AO2 PK WND 02033/2117 T00610061 TSNO
PAPB 172125Z AUTO 36023G33KT 2SM BR OVC003 06/06 A2956 RMK AO2 PK WND 02033/2117 T00610061 TSNO
PAPB 172120Z AUTO 36018G33KT 1 3/4SM BR OVC004 06/06 A2957 RMK AO2 PK WND 02033/2117 T00610061 TSNO
PAPB 172112Z AUTO 36017G28KT 2SM BR OVC004 06/06 A2957 RMK AO2 PK WND 34028/2112 T00610061 TSNO
PAPB 172053Z AUTO 35020G30KT 4SM BR OVC004 06/06 A2956 RMK AO2 PK WND 01039/1955 SLP997 T00610061 51009 TSNO
PAPB 172029Z AUTO 36022G30KT 3SM BR OVC004 06/06 A2955 RMK AO2 PK WND 01039/1955 T00610061 TSNO
PAPB 172002Z AUTO 36021G39KT 3SM BR OVC003 06/06 A2955 RMK AO2 PK WND 01039/1955 T00610061 TSNO
PAPB 171953Z AUTO 36021G30KT 2 1/2SM BR OVC003 06/06 A2955 RMK AO2 PK WND 36032/1930 SLP994 T00610061 TSNO
PAPB 171945Z AUTO 36021G29KT 3SM BR OVC003 06/06 A2955 RMK AO2 PK WND 36032/1930 T00610061 TSNO
PAPB 171926Z AUTO 01016G32KT 2 1/2SM BR OVC003 06/06 A2955 RMK AO2 PK WND 36032/1921 T00610061 TSNO
PAPB 171919Z AUTO 36021G30KT 2SM BR OVC004 06/06 A2954 RMK AO2 PK WND 02031/1904 T00610061 TSNO
PAPB 171853Z AUTO 36021G27KT 5SM BR OVC004 06/06 A2954 RMK AO2 PK WND 35033/1818 SLP992 T00610061 TSNO
PAPB 171838Z AUTO 36022G29KT 5SM BR OVC005 06/06 A2954 RMK AO2 PK WND 35033/1818 T00610061 TSNO
PAPB 171753Z AUTO 35016G33KT 3SM BR OVC004 06/06 A2953 RMK AO2 PK WND 02033/1750 SLP988 60001 T00610061 10067 20061 53012 TSNO
PAPB 171653Z AUTO 36018G34KT 4SM BR OVC004 06/06 A2951 RMK AO2 PK WND 01034/1646 SLP982 T00610061 TSNO
PAPB 171632Z AUTO 36021G29KT 3SM BR OVC002 06/06 A2951 RMK AO2 PK WND 33029/1626 T00610061 TSNO
PAPB 171624Z AUTO 35017G27KT 1 1/4SM BR OVC002 06/06 A2951 RMK AO2 PK WND 36029/1605 T00610061 TSNO
PAPB 171553Z AUTO 35020G28KT 3/4SM BR OVC003 06/06 A2950 RMK AO2 PK WND 01035/1509 RAE01 SLP978 P0001 T00610061 TSNO
PAPB 171550Z AUTO 01018G29KT 3/4SM BR OVC003 06/06 A2950 RMK AO2 PK WND 01035/1509 RAE01 P0001 TSNO
PAPB 171542Z AUTO 36020G28KT 1SM BR OVC004 06/06 A2950 RMK AO2 PK WND 01035/1509 RAE01 P0001 T00610061 TSNO
PAPB 171525Z AUTO 36018G30KT 2 1/2SM BR OVC004 06/06 A2950 RMK AO2 PK WND 01035/1509 RAE01 P0001 T00610061 TSNO
PAPB 171453Z AUTO 35017G28KT 5SM -RA BR OVC006 06/06 A2950 RMK AO2 PK WND 36032/1418 RAB25 SLP976 P0000 60000 T00610061 53005 TSNO
PAPB 171353Z AUTO 35021G31KT 7SM OVC007 06/06 A2948 RMK AO2 PK WND 01032/1323 SLP972 T00610056 TSNO
PAPB 171253Z AUTO 01019G28KT 8SM OVC006 06/06 A2948 RMK AO2 PK WND 01029/1230 SLP971 T00610061 TSNO
PAPB 171153Z AUTO 35017G28KT 8SM OVC006 06/06 A2948 RMK AO2 PK WND 01031/1124 RAB30E38 SLP970 P0000 60001 70004 T00610061 10078 20061 51005 TSNO
PAPB 171141Z AUTO 36017G29KT 5SM BR OVC005 07/06 A2948 RMK AO2 PK WND 01031/1124 RAB30E38 P0000 T00670061 TSNO
PAPB 171131Z AUTO 36016G31KT 2 1/2SM -RA BR BKN005 OVC009 06/06 A2948 RMK AO2 PK WND 01031/1124 RAB30 P0000 T00610061 TSNO
PAPB 171053Z AUTO 36018G26KT 4SM BR OVC005 07/06 A2947 RMK AO2 PK WND 35027/1033 RAE02 SLP969 P0001 T00670061 TSNO
PAPB 171027Z AUTO 01014G23KT 4SM BR OVC005 07/06 A2948 RMK AO2 RAE02 P0001 T00670061 TSNO
PAPB 171007Z AUTO 36018G24KT 3SM BR OVC004 07/06 A2947 RMK AO2 RAE02 P0001 T00670061 TSNO
PAPB 170953Z AUTO 01013G24KT 3SM -RA BR OVC003 07/07 A2947 RMK AO2 RAB38 SLP968 P0000 T00670067 TSNO
PAPB 170914Z AUTO 01017G23KT 5SM BR OVC003 07/07 A2947 RMK AO2 T00670067 TSNO
PAPB 170853Z AUTO 01013KT 10SM BKN004 OVC042 07/07 A2946 RMK AO2 SLP965 T00720072 400890067 51004 TSNO
PAPB 170823Z AUTO 36010KT 3SM BR OVC002 07/07 A2947 RMK AO2 T00670067 TSNO
PAPB 170803Z AUTO 01016KT 1 1/4SM BR OVC002 07/07 A2947 RMK AO2 VIS 3/4V2 1/2 T00720072 TSNO
PAPB 170753Z AUTO 36013KT 2 1/2SM BR OVC002 07/07 A2946 RMK AO2 VIS 1 1/2V4 SLP965 T00720072 TSNO
PAPB 170748Z AUTO 01012KT 3SM BR OVC002 07/07 A2946 RMK AO2 TSNO
PAPB 170736Z AUTO 36013KT 2 1/2SM BR OVC002 07/07 A2946 RMK AO2 VIS 1 1/4V5 T00720072 TSNO
PAPB 170719Z AUTO 01011KT 1 3/4SM BR BKN003 OVC037 07/07 A2945 RMK AO2 T00720072 TSNO
PAPB 170653Z AUTO 01012KT 6SM BR OVC003 07/07 A2945 RMK AO2 SLP961 T00720072 TSNO
PAPB 170553Z AUTO 02014KT 3SM BR OVC002 08/08 A2943 RMK AO2 SLP955 60002 T00780078 10089 20078 51014 TSNO
PAPB 170453Z AUTO 02017KT 9SM OVC003 08/08 A2942 RMK AO2 SLP952 T00780078 TSNO
PAPB 170353Z AUTO 04016KT 10SM OVC002 09/09 A2941 RMK AO2 SLP946 T00890089 TSNO